METAR AND TAF INFORMATION
METAR FOR LEVS
ADDS - METARS form results

(0248 UTC 25 September 2022)
Data provider http://aviationweather.gov/metar/data/
 
METAR text: LEVS 250230Z AUTO 05006KT 320V110 9999 BKN075 14/06 Q1014
Conditions at: LEVS (MADRID/CUATRO VI, ES) observed 0230 UTC 25 September 2022
Temperature: 14.0°C (57°F)
Dewpoint: 6.0°C (43°F) [RH = 58%]
Pressure (altimeter): 29.94 inches Hg (1014.0 mb)
Winds: from the NE (50 degrees) at 7 MPH (6 knots; 3.1 m/s)
Visibility: 6 or more miles (10+ km)
Ceiling: 7500 feet AGL
Clouds: broken clouds at 7500 feet AGL
Weather: no significant weather observed at this time

METAR text: LEVS 250200Z AUTO 05005KT 350V100 9999 FEW076 14/06 Q1014
Conditions at: LEVS (MADRID/CUATRO VI, ES) observed 0200 UTC 25 September 2022
Temperature: 14.0°C (57°F)
Dewpoint: 6.0°C (43°F) [RH = 58%]
Pressure (altimeter): 29.94 inches Hg (1014.0 mb)
Winds: from the NE (50 degrees) at 6 MPH (5 knots; 2.6 m/s)
Visibility: 6 or more miles (10+ km)
Ceiling: at least 12,000 feet AGL
Clouds: few clouds at 7600 feet AGL
Weather: no significant weather observed at this time

Forecast for: LEVS (MADRID/CUATRO VI, ES)
Text: TAF LEVS 242300Z 2500/2524 02008KT CAVOK TX22/2515Z TN13/2506Z
Forecast period: 0000 UTC 25 September 2022 to 0000 UTC 26 September 2022
Forecast type: FROM: standard forecast or significant change
Winds: from the NNE (20 degrees) at 9 MPH (8 knots; 4.1 m/s)
Visibility: 6 or more miles (10+ km)
Ceiling: unknown
Clouds: missing
Weather: no significant weather forecast for this period
Text: PROB30
Forecast period: 1200 to 1800 UTC 25 September 2022
Forecast type: TEMPORARY: The following changes expected for less than half the time period
Winds: from the NNE (20 degrees) at 15 MPH (13 knots; 6.7 m/s)
gusting to 26 MPH (23 knots; 11.8 m/s)
Visibility: missing
Ceiling: unknown
Clouds: missing
Weather: no significant weather forecast for this period

 AIRPORT MAP

 RUNWAY INFORMATION

 AIRPORT FREQUENCIES

 AIRPORT NEAR NAVIGATION AIDS